KCIU/CIU METAR and TAF weather

Enter ICAO airport designator
Station Type Date Time Source
KCIU METAR 2020/10/29 15:56 UTC NOAA

KCIU 291556Z AUTO 02011KT 10SM OVC043 00/M05 A3003 RMK AO2 SLP177 T00001050 FZRANO


Station Type Date Time Source
KCIU Decoded METAR 2020/10/29 15:56 UTC NOAA

Sault Ste Marie, Chippewa County International Airport, MI, United States (KCIU) 46-15N 084-28W
Oct 29, 2020 - 11:56 AM EDT / 2020.10.29 1556 UTC
Wind: from the NNE (020 degrees) at 13 MPH (11 KT):0
Visibility: 10 mile(s):0
Sky conditions: overcast
Temperature: 32.0 F (0.0 C)
Windchill: 23 F (-5 C):1
Dew Point: 23.0 F (-5.0 C)
Relative Humidity: 69%
Pressure (altimeter): 30.03 in. Hg (1016 hPa)
ob: KCIU 291556Z AUTO 02011KT 10SM OVC043 00/M05 A3003 RMK AO2 SLP177 T00001050 FZRANO
cycle: 16

Station Type Date Time Source
KCIU TAF UTC NOAA

Error!

Example: see airport list